createdAt,value
2019-01-22T00:00:23.308Z,26.73
2019-01-22T00:02:52.263Z,25.85
2019-01-22T00:05:20.750Z,26.23
2019-01-22T00:07:49.694Z,26.00
2019-01-22T00:10:18.357Z,26.65
2019-01-22T00:12:46.870Z,26.33
2019-01-22T00:15:15.548Z,27.20
2019-01-22T00:17:54.008Z,25.55
2019-01-22T00:20:22.483Z,25.37
2019-01-22T00:22:50.967Z,26.15
2019-01-22T00:25:19.431Z,26.07
2019-01-22T00:27:48.268Z,26.75
2019-01-22T00:30:21.728Z,25.00
2019-01-22T00:32:50.265Z,25.70
2019-01-22T00:35:19.257Z,26.37
2019-01-22T00:37:47.786Z,25.12
2019-01-22T00:40:18.573Z,25.25
2019-01-22T00:42:48.062Z,24.60
2019-01-22T00:45:17.266Z,26.52
2019-01-22T00:47:45.726Z,25.82
2019-01-22T00:50:17.161Z,24.05
2019-01-22T00:52:45.608Z,25.50
2019-01-22T00:55:16.831Z,24.92
2019-01-22T00:57:45.441Z,23.87
2019-01-22T01:00:16.983Z,24.12
2019-01-22T01:02:45.451Z,25.55
2019-01-22T01:05:14.443Z,23.73
2019-01-22T01:07:43.515Z,24.47
2019-01-22T01:10:13.856Z,23.15
2019-01-22T01:12:42.818Z,24.18
2019-01-22T01:15:13.880Z,23.57
2019-01-22T01:17:42.774Z,23.67
2019-01-22T01:20:17.286Z,22.52
2019-01-22T01:22:45.833Z,23.75
2019-01-22T01:25:17.327Z,24.47
2019-01-22T01:27:45.779Z,23.65
2019-01-22T01:30:19.422Z,23.25
2019-01-22T01:32:47.891Z,23.25
2019-01-22T01:35:16.352Z,23.62
2019-01-22T01:37:44.832Z,22.70
2019-01-22T01:40:15.839Z,25.10
2019-01-22T01:42:44.447Z,23.62
2019-01-22T01:45:13.751Z,25.32
2019-01-22T01:47:43.257Z,24.67
2019-01-22T01:50:16.671Z,23.07
2019-01-22T01:52:45.539Z,23.27
2019-01-22T01:55:16.107Z,25.23
2019-01-22T01:57:44.591Z,24.25
2019-01-22T02:00:19.183Z,24.72
2019-01-22T02:02:48.075Z,22.70
2019-01-22T02:05:16.665Z,23.22
2019-01-22T02:07:45.143Z,23.98
2019-01-22T02:10:16.771Z,23.73
2019-01-22T02:12:48.419Z,25.30
2019-01-22T02:15:25.924Z,23.80
2019-01-22T02:17:57.469Z,23.27
2019-01-22T02:20:45.358Z,22.67
2019-01-22T02:23:30.669Z,23.47
2019-01-22T02:26:16.462Z,24.12
2019-01-22T02:28:59.599Z,22.73
2019-01-22T02:31:36.981Z,22.87
2019-01-22T02:34:20.647Z,23.15
2019-01-22T02:37:00.835Z,24.37
2019-01-22T02:39:41.731Z,23.18
2019-01-22T02:42:13.314Z,23.18
2019-01-22T02:45:10.456Z,21.75
2019-01-22T02:47:42.078Z,22.40
2019-01-22T02:50:28.367Z,22.62
2019-01-22T02:53:02.873Z,22.37
2019-01-22T02:55:36.975Z,22.27
2019-01-22T02:58:40.237Z,21.30
2019-01-22T03:01:12.108Z,23.87
2019-01-22T03:03:47.211Z,22.58
2019-01-22T03:06:43.309Z,20.88
2019-01-22T03:09:26.177Z,21.23
2019-01-22T03:12:09.647Z,22.22
2019-01-22T03:14:50.260Z,23.27
2019-01-22T03:17:34.035Z,22.70
2019-01-22T03:20:11.213Z,22.95
2019-01-22T03:22:42.748Z,21.35
2019-01-22T03:25:30.947Z,21.12
2019-01-22T03:28:14.682Z,21.20
2019-01-22T03:30:57.733Z,20.92
2019-01-22T03:33:29.626Z,21.20
2019-01-22T03:36:19.197Z,22.25
2019-01-22T03:39:02.451Z,21.60
2019-01-22T03:41:39.653Z,21.23
2019-01-22T03:44:26.106Z,21.50
2019-01-22T03:47:32.312Z,24.52
2019-01-22T03:50:29.314Z,23.18
2019-01-22T03:53:04.190Z,23.05
2019-01-22T03:55:50.802Z,24.75
2019-01-22T03:58:19.583Z,24.23
2019-01-22T04:00:48.074Z,23.50
2019-01-22T04:03:16.933Z,25.92
2019-01-22T04:05:45.552Z,26.17
2019-01-22T04:08:14.019Z,24.90
2019-01-22T04:10:43.733Z,25.32
2019-01-22T04:13:12.187Z,24.85
2019-01-22T04:15:40.922Z,24.82
2019-01-22T04:18:15.686Z,23.85
2019-01-22T04:20:44.639Z,25.10
2019-01-22T04:23:14.940Z,27.02
2019-01-22T04:25:55.634Z,25.52
2019-01-22T04:28:27.448Z,28.32
2019-01-22T04:31:10.950Z,25.45
2019-01-22T04:34:15.743Z,24.32
2019-01-22T04:37:07.765Z,26.40
2019-01-22T04:39:45.126Z,25.88
2019-01-22T04:42:34.978Z,24.92
2019-01-22T04:45:26.053Z,28.27
2019-01-22T04:48:18.170Z,22.90
2019-01-22T04:51:02.099Z,25.68
2019-01-22T04:53:54.488Z,25.85
2019-01-22T04:56:47.242Z,25.75
2019-01-22T04:59:36.097Z,25.12
2019-01-22T05:02:26.954Z,24.07
2019-01-22T05:05:01.298Z,24.75
2019-01-22T05:07:38.888Z,25.60
2019-01-22T05:10:22.342Z,24.92
2019-01-22T05:13:10.695Z,25.45
2019-01-22T05:16:15.312Z,23.07
2019-01-22T05:18:55.352Z,23.80
2019-01-22T05:21:56.933Z,23.95
2019-01-22T05:24:31.000Z,22.00
2019-01-22T05:27:05.260Z,23.02
2019-01-22T05:29:59.579Z,21.75
2019-01-22T05:33:02.859Z,22.22
2019-01-22T05:35:51.020Z,21.23
2019-01-22T05:38:54.098Z,22.67
2019-01-22T05:41:34.311Z,23.02
2019-01-22T05:44:14.696Z,27.70
2019-01-22T05:46:58.063Z,24.10
2019-01-22T05:49:35.786Z,23.40
2019-01-22T05:52:13.339Z,21.37
2019-01-22T05:54:50.624Z,20.45
2019-01-22T05:57:20.448Z,21.17
2019-01-22T05:59:51.977Z,21.70
2019-01-22T06:02:21.990Z,20.70
2019-01-22T06:05:05.768Z,19.42
2019-01-22T06:07:58.748Z,18.60
2019-01-22T06:10:50.752Z,19.30
2019-01-22T06:13:31.598Z,17.98
2019-01-22T06:16:19.921Z,20.62
2019-01-22T06:19:06.437Z,18.67
2019-01-22T06:21:43.663Z,19.27
2019-01-22T06:24:20.940Z,18.50
2019-01-22T06:26:52.735Z,19.52
2019-01-22T06:29:43.503Z,17.60
2019-01-22T06:32:33.347Z,19.25
2019-01-22T06:35:10.588Z,18.67
2019-01-22T06:37:53.883Z,20.55
2019-01-22T06:40:37.137Z,18.95
2019-01-22T06:43:37.180Z,21.35
2019-01-22T06:46:11.474Z,20.23
2019-01-22T06:48:51.898Z,21.27
2019-01-22T06:51:41.567Z,19.50
2019-01-22T06:54:25.044Z,18.80
2019-01-22T06:57:16.963Z,19.50
2019-01-22T07:00:21.892Z,18.67
2019-01-22T07:03:02.211Z,18.12
2019-01-22T07:05:45.712Z,17.37
2019-01-22T07:08:36.613Z,18.57
2019-01-22T07:11:10.783Z,18.70
2019-01-22T07:13:54.154Z,17.23
2019-01-22T07:16:35.390Z,18.35
2019-01-22T07:19:09.580Z,18.82
2019-01-22T07:21:49.612Z,17.73
2019-01-22T07:24:37.507Z,18.98
2019-01-22T07:27:34.827Z,18.80
2019-01-22T07:30:21.761Z,18.20
2019-01-22T07:33:12.894Z,18.67
2019-01-22T07:35:50.268Z,18.45
2019-01-22T07:38:21.803Z,19.10
2019-01-22T07:40:53.326Z,20.23
2019-01-22T07:43:33.571Z,18.05
2019-01-22T07:46:26.308Z,20.95
2019-01-22T07:49:00.704Z,21.65
2019-01-22T07:51:51.358Z,21.17
2019-01-22T07:54:29.065Z,18.07
2019-01-22T07:57:00.611Z,17.98
2019-01-22T07:59:35.061Z,18.35
2019-01-22T08:02:23.043Z,18.20
2019-01-22T08:04:58.955Z,19.30
2019-01-22T08:07:40.966Z,18.23
2019-01-22T08:10:28.806Z,19.85
2019-01-22T08:13:16.702Z,19.90
2019-01-22T08:15:53.694Z,19.57
2019-01-22T08:18:34.268Z,19.45
2019-01-22T08:21:20.955Z,19.37
2019-01-22T08:23:58.430Z,18.62
2019-01-22T08:26:38.843Z,17.95
2019-01-22T08:29:10.386Z,19.20
2019-01-22T08:31:44.683Z,17.52
2019-01-22T08:34:18.995Z,17.37
2019-01-22T08:37:07.203Z,17.45
2019-01-22T08:39:39.065Z,15.73
2019-01-22T08:42:13.171Z,17.33
2019-01-22T08:44:47.719Z,17.73
2019-01-22T08:47:19.268Z,17.13
2019-01-22T08:50:02.686Z,18.17
2019-01-22T08:52:40.206Z,16.03
2019-01-22T08:55:46.273Z,17.67
2019-01-22T08:58:26.943Z,16.80
2019-01-22T09:01:10.235Z,15.67
2019-01-22T09:03:53.759Z,16.73
2019-01-22T09:06:31.015Z,17.07
2019-01-22T09:09:05.461Z,17.87
2019-01-22T09:11:53.411Z,16.80
2019-01-22T09:14:33.856Z,16.60
2019-01-22T09:17:26.527Z,14.27
2019-01-22T09:19:58.082Z,13.80
2019-01-22T09:22:50.084Z,14.97
2019-01-22T09:25:27.878Z,15.03
2019-01-22T09:27:59.415Z,12.63
2019-01-22T09:30:54.974Z,12.50
2019-01-22T09:33:55.138Z,10.37
2019-01-22T09:36:26.671Z,10.53
2019-01-22T09:38:55.151Z,12.07
2019-01-22T09:41:23.651Z,11.67
2019-01-22T09:43:52.103Z,11.90
2019-01-22T09:46:20.582Z,12.47
2019-01-22T09:48:49.023Z,13.33
2019-01-22T09:51:17.603Z,13.30
2019-01-22T09:53:46.112Z,12.73
2019-01-22T09:56:14.579Z,12.27
2019-01-22T09:58:43.065Z,11.50
2019-01-22T10:01:11.539Z,11.87
2019-01-22T10:03:40.011Z,12.63
2019-01-22T10:06:08.486Z,11.73
2019-01-22T10:08:36.951Z,12.17
2019-01-22T10:11:05.662Z,9.77
2019-01-22T10:13:34.118Z,9.73
2019-01-22T10:16:02.926Z,9.50
2019-01-22T10:18:31.376Z,10.40
2019-01-22T10:20:59.826Z,9.67
2019-01-22T10:23:28.282Z,9.53
2019-01-22T10:25:57.022Z,9.50
2019-01-22T10:29:28.884Z,10.23
2019-01-22T10:31:57.557Z,10.27
2019-01-22T10:34:26.247Z,10.00
2019-01-22T10:36:54.929Z,10.30
2019-01-22T10:39:23.333Z,9.27
2019-01-22T10:41:52.081Z,9.33
2019-01-22T10:44:20.503Z,9.03
2019-01-22T10:46:49.251Z,8.87
2019-01-22T10:49:17.938Z,9.07
2019-01-22T10:51:46.368Z,8.90
2019-01-22T10:54:15.097Z,8.93
2019-01-22T10:56:43.522Z,9.37
2019-01-22T10:59:11.929Z,9.07
2019-01-22T11:01:40.643Z,9.67
2019-01-22T11:04:09.057Z,9.13
2019-01-22T11:06:37.829Z,8.43
2019-01-22T11:09:07.677Z,9.10
2019-01-22T11:11:36.406Z,9.40
2019-01-22T11:14:04.816Z,9.87
2019-01-22T11:16:33.232Z,9.37
2019-01-22T11:19:02.051Z,9.80
2019-01-22T11:21:30.731Z,10.27
2019-01-22T11:23:59.417Z,10.27
2019-01-22T11:26:28.206Z,10.47
2019-01-22T11:29:02.545Z,9.90
2019-01-22T11:31:31.308Z,9.53
2019-01-22T11:33:59.997Z,10.30
2019-01-22T11:36:28.397Z,9.37
2019-01-22T11:38:56.816Z,8.80
2019-01-22T11:41:26.269Z,8.87
2019-01-22T11:43:55.141Z,7.70
2019-01-22T11:46:24.066Z,8.40
2019-01-22T11:48:52.477Z,8.20
2019-01-22T11:51:21.293Z,7.10
2019-01-22T11:53:49.980Z,7.07
2019-01-22T11:56:18.677Z,7.97
2019-01-22T11:58:50.016Z,8.37
2019-01-22T12:01:18.797Z,7.30
2019-01-22T12:03:50.168Z,8.67
2019-01-22T12:06:18.612Z,7.90
2019-01-22T12:08:47.082Z,7.77
2019-01-22T12:11:15.918Z,8.13
2019-01-22T12:13:44.362Z,8.27
2019-01-22T12:16:13.179Z,8.00
2019-01-22T12:18:41.639Z,8.37
2019-01-22T12:21:11.074Z,8.30
2019-01-22T12:23:39.529Z,10.30
2019-01-22T12:26:07.969Z,8.53
2019-01-22T12:28:36.693Z,8.40
2019-01-22T12:31:05.123Z,8.60
2019-01-22T12:33:33.589Z,7.50
2019-01-22T12:36:02.036Z,9.10
2019-01-22T12:38:31.027Z,9.17
2019-01-22T12:40:59.470Z,8.97
2019-01-22T12:43:28.296Z,8.73
2019-01-22T12:45:57.138Z,10.27
2019-01-22T12:48:25.860Z,8.97
2019-01-22T12:50:54.645Z,8.67
2019-01-22T12:53:23.117Z,9.90
2019-01-22T12:55:51.913Z,9.93
2019-01-22T12:58:20.363Z,10.73
2019-01-22T13:00:49.206Z,9.57
2019-01-22T13:03:17.687Z,9.87
2019-01-22T13:05:52.390Z,10.13
2019-01-22T13:08:21.179Z,10.07
2019-01-22T13:10:49.605Z,11.33
2019-01-22T13:14:06.341Z,9.90
2019-01-22T13:16:34.803Z,10.80
2019-01-22T13:19:03.518Z,10.87
2019-01-22T13:21:32.856Z,11.33
2019-01-22T13:24:01.295Z,11.27
2019-01-22T13:26:29.693Z,10.83
2019-01-22T13:28:58.115Z,10.13
2019-01-22T13:31:26.530Z,10.70
2019-01-22T13:33:54.960Z,10.43
2019-01-22T13:36:27.039Z,11.27
2019-01-22T13:38:55.527Z,11.27
2019-01-22T13:41:23.969Z,11.93
2019-01-22T13:43:52.422Z,11.93
2019-01-22T13:46:20.890Z,11.97
2019-01-22T13:48:49.361Z,14.00
2019-01-22T13:51:17.813Z,12.47
2019-01-22T13:53:46.263Z,13.70
2019-01-22T13:56:18.552Z,12.60
2019-01-22T13:58:45.350Z,14.33
2019-01-22T14:01:13.814Z,13.97
2019-01-22T14:03:42.235Z,14.33
2019-01-22T14:06:10.709Z,14.80
2019-01-22T14:08:39.165Z,13.97
2019-01-22T14:11:07.711Z,14.20
2019-01-22T14:13:36.280Z,13.57
2019-01-22T14:16:04.913Z,13.87
2019-01-22T14:18:33.410Z,14.60
2019-01-22T14:21:02.185Z,14.47
2019-01-22T14:23:30.672Z,15.70
2019-01-22T14:25:59.430Z,15.57
2019-01-22T14:28:28.858Z,15.27
2019-01-22T14:30:58.257Z,15.73
2019-01-22T14:33:26.693Z,16.03
2019-01-22T14:35:55.234Z,15.27
2019-01-22T14:38:23.693Z,15.63
2019-01-22T14:40:52.138Z,15.33
2019-01-22T14:43:22.074Z,15.57
2019-01-22T14:45:50.525Z,16.30
2019-01-22T14:48:20.592Z,17.57
2019-01-22T14:50:49.054Z,16.30
2019-01-22T14:53:17.499Z,16.67
2019-01-22T14:55:46.200Z,17.33
2019-01-22T14:58:17.032Z,18.10
2019-01-22T15:00:47.343Z,24.03
2019-01-22T15:03:18.757Z,20.37
2019-01-22T15:05:49.009Z,19.10
2019-01-22T15:08:19.289Z,20.77
2019-01-22T15:10:48.210Z,18.83
2019-01-22T15:13:16.662Z,18.43
2019-01-22T15:15:45.142Z,19.00
2019-01-22T15:18:13.597Z,20.37
2019-01-22T15:20:42.059Z,20.27
2019-01-22T15:23:10.507Z,20.13
2019-01-22T15:25:38.979Z,19.60
2019-01-22T15:28:07.433Z,18.53
2019-01-22T15:30:37.136Z,18.97
2019-01-22T15:33:05.934Z,22.03
2019-01-22T15:35:34.409Z,19.30
2019-01-22T15:38:02.900Z,19.63
2019-01-22T15:40:31.925Z,18.67
2019-01-22T15:43:00.379Z,19.67
2019-01-22T15:45:28.923Z,17.10
2019-01-22T15:47:57.641Z,16.93
2019-01-22T15:50:26.326Z,18.30
2019-01-22T15:52:55.080Z,16.73
2019-01-22T15:55:29.391Z,16.70
2019-01-22T15:57:57.854Z,18.27
2019-01-22T16:00:28.469Z,16.73
2019-01-22T16:02:57.854Z,15.33
2019-01-22T16:05:26.880Z,15.23
2019-01-22T16:07:55.794Z,14.63
2019-01-22T16:10:24.355Z,15.53
2019-01-22T16:12:52.872Z,15.87
2019-01-22T16:15:24.006Z,16.73
2019-01-22T16:17:54.301Z,15.60
2019-01-22T16:20:27.498Z,15.40
2019-01-22T16:22:56.327Z,15.93
2019-01-22T16:25:25.122Z,15.63
2019-01-22T16:27:53.662Z,15.87
2019-01-22T16:30:25.358Z,16.93
2019-01-22T16:32:54.002Z,15.67
2019-01-22T16:35:24.231Z,15.37
2019-01-22T16:37:52.906Z,15.43
2019-01-22T16:40:21.617Z,16.07
2019-01-22T16:42:50.594Z,14.57
2019-01-22T16:45:28.423Z,16.40
2019-01-22T16:47:57.490Z,15.37
2019-01-22T16:50:27.986Z,16.00
2019-01-22T16:52:56.465Z,18.37
2019-01-22T16:55:33.960Z,16.17
2019-01-22T16:58:04.111Z,15.63
2019-01-22T17:00:34.719Z,17.33
2019-01-22T17:03:03.361Z,16.40
2019-01-22T17:05:31.914Z,14.90
2019-01-22T17:08:01.231Z,14.37
2019-01-22T17:10:29.697Z,14.77
2019-01-22T17:12:58.150Z,15.53
2019-01-22T17:15:28.315Z,16.10
2019-01-22T17:17:56.823Z,15.40
2019-01-22T17:20:30.862Z,14.97
2019-01-22T17:23:02.233Z,14.27
2019-01-22T17:25:29.586Z,15.40
2019-01-22T17:27:58.098Z,15.67
2019-01-22T17:30:27.088Z,14.50
2019-01-22T17:32:57.590Z,14.53
2019-01-22T17:35:26.417Z,17.87
2019-01-22T17:37:54.884Z,19.87
2019-01-22T17:40:23.710Z,15.73
2019-01-22T17:42:52.590Z,18.03
2019-01-22T17:45:21.041Z,15.03
2019-01-22T17:47:49.501Z,14.57
2019-01-22T17:50:18.317Z,16.23
2019-01-22T17:52:47.151Z,14.20
2019-01-22T17:55:15.642Z,15.80
2019-01-22T17:57:44.095Z,15.20
2019-01-22T18:00:22.006Z,16.47
2019-01-22T18:02:50.462Z,16.07
2019-01-22T18:05:20.386Z,15.27
2019-01-22T18:07:48.846Z,13.23
2019-01-22T18:10:20.018Z,14.77
2019-01-22T18:12:55.018Z,14.83
2019-01-22T18:15:23.471Z,16.27
2019-01-22T18:17:51.939Z,14.80
2019-01-22T18:20:28.161Z,16.27
2019-01-22T18:22:56.695Z,15.37
2019-01-22T18:25:25.137Z,16.17
2019-01-22T18:27:53.683Z,16.30
2019-01-22T18:30:24.334Z,15.43
2019-01-22T18:32:52.822Z,16.60
2019-01-22T18:35:27.165Z,15.93
2019-01-22T18:37:55.618Z,15.90
2019-01-22T18:40:24.551Z,15.07
2019-01-22T18:42:53.006Z,14.67
2019-01-22T18:45:21.711Z,15.73
2019-01-22T18:47:50.188Z,16.93
2019-01-22T18:50:23.678Z,16.87
2019-01-22T18:56:20.371Z,20.10
2019-01-22T18:58:48.793Z,19.83
2019-01-22T19:01:17.663Z,19.40
2019-01-22T19:03:46.090Z,21.83
2019-01-22T19:06:14.635Z,19.73
2019-01-22T19:08:43.123Z,19.73
2019-01-22T19:11:11.868Z,19.70
2019-01-22T19:13:40.302Z,18.57
2019-01-22T19:16:08.726Z,17.50
2019-01-22T19:18:37.177Z,16.40
2019-01-22T19:21:05.598Z,15.43
2019-01-22T19:23:34.034Z,16.43
2019-01-22T19:30:33.410Z,17.63
2019-01-22T19:40:17.831Z,18.63
2019-01-22T19:42:46.779Z,17.10
2019-01-22T19:45:20.972Z,18.30
2019-01-22T19:47:49.401Z,17.77
2019-01-22T19:50:18.910Z,18.07
2019-01-22T19:52:48.564Z,18.73
2019-01-22T19:55:16.990Z,18.27
2019-01-22T19:57:45.486Z,21.23
2019-01-22T20:00:17.171Z,18.07
2019-01-22T20:02:45.577Z,20.10
2019-01-22T20:05:14.831Z,18.43
2019-01-22T20:07:43.250Z,22.43
2019-01-22T20:10:14.909Z,29.07
2019-01-22T20:12:43.321Z,22.00
2019-01-22T20:15:17.185Z,20.63
2019-01-22T20:17:47.134Z,22.73
2019-01-22T20:20:17.701Z,22.37
2019-01-22T20:22:46.616Z,21.63
2019-01-22T20:25:15.977Z,21.30
2019-01-22T20:27:48.083Z,19.10
2019-01-22T20:30:31.884Z,22.13
2019-01-22T20:33:00.570Z,21.00
2019-01-22T20:35:29.048Z,20.77
2019-01-22T20:37:58.129Z,19.47
2019-01-22T20:40:26.549Z,19.57
2019-01-22T20:42:54.965Z,19.53
2019-01-22T20:45:28.576Z,20.83
2019-01-22T20:48:02.882Z,21.37
2019-01-22T20:50:31.319Z,22.20
2019-01-22T20:52:59.730Z,22.50
2019-01-22T20:55:28.146Z,21.03
2019-01-22T20:57:57.010Z,20.70
2019-01-22T21:00:28.365Z,20.17
2019-01-22T21:02:57.746Z,18.93
2019-01-22T21:05:30.257Z,19.37
2019-01-22T21:07:58.742Z,18.63
2019-01-22T21:10:32.207Z,19.87
2019-01-22T21:13:00.966Z,19.60
2019-01-22T21:15:30.129Z,20.10
2019-01-22T21:17:58.572Z,19.50
2019-01-22T21:20:27.634Z,20.33
2019-01-22T21:22:57.359Z,19.93
2019-01-22T21:25:26.131Z,24.93
2019-01-22T21:28:02.641Z,22.10
2019-01-22T21:30:33.405Z,23.47
2019-01-22T21:33:02.925Z,22.33
2019-01-22T21:35:31.393Z,23.47
2019-01-22T21:38:00.101Z,22.98
2019-01-22T21:40:28.538Z,23.33
2019-01-22T21:42:57.325Z,23.97
2019-01-22T21:45:30.285Z,25.80
2019-01-22T21:47:58.721Z,24.90
2019-01-22T21:50:27.221Z,25.73
2019-01-22T21:52:55.934Z,23.30
2019-01-22T21:55:24.837Z,24.55
2019-01-22T21:57:53.606Z,23.60
2019-01-22T22:00:27.862Z,24.00
2019-01-22T22:02:56.453Z,23.23
2019-01-22T22:05:27.807Z,23.90
2019-01-22T22:07:56.305Z,23.63
2019-01-22T22:10:25.365Z,24.77
2019-01-22T22:12:53.825Z,23.67
2019-01-22T22:15:24.298Z,23.67
2019-01-22T22:17:52.708Z,24.53
2019-01-22T22:20:21.389Z,23.97
2019-01-22T22:22:50.082Z,23.57
2019-01-22T22:25:21.092Z,25.47
2019-01-22T22:27:49.569Z,24.30
2019-01-22T22:30:33.022Z,24.20
2019-01-22T22:33:01.523Z,21.57
2019-01-22T22:35:29.973Z,21.30
2019-01-22T22:37:59.322Z,22.03
2019-01-22T22:40:27.989Z,21.23
2019-01-22T22:42:56.494Z,22.73
2019-01-22T22:45:36.218Z,21.87
2019-01-22T22:48:05.345Z,21.30
2019-01-22T22:50:33.950Z,20.53
2019-01-22T22:53:02.404Z,20.47
2019-01-22T22:55:30.995Z,21.57
2019-01-22T22:57:59.700Z,20.33
2019-01-22T23:00:37.720Z,21.73
2019-01-22T23:03:07.656Z,20.57
2019-01-22T23:05:37.546Z,20.63
2019-01-22T23:08:06.352Z,20.13
2019-01-22T23:10:35.186Z,20.77
2019-01-22T23:13:04.221Z,21.53
2019-01-22T23:15:32.711Z,19.97
2019-01-22T23:18:01.182Z,22.27
2019-01-22T23:20:29.662Z,21.63
2019-01-22T23:22:58.129Z,20.23
2019-01-22T23:25:26.612Z,21.90
2019-01-22T23:27:55.087Z,23.03
2019-01-22T23:30:24.006Z,22.00
2019-01-22T23:32:52.850Z,21.37
2019-01-22T23:35:21.680Z,20.97
2019-01-22T23:37:50.162Z,21.43
2019-01-22T23:40:18.705Z,22.60
2019-01-22T23:42:47.301Z,22.50
2019-01-22T23:45:17.375Z,21.93
2019-01-22T23:47:45.863Z,21.10
2019-01-22T23:50:15.972Z,21.10
2019-01-22T23:52:44.448Z,20.50
2019-01-22T23:55:13.342Z,19.93
2019-01-22T23:57:41.816Z,19.67
